Delta Virtual Airport Information Service

Faro Airport

ICAO: LPFR Country: Portugal
Latitude: 37.0144 Longitude: -7.96591
Latest Arrival : DAC5828 (OKBK-LPFR) Latest Departure : DAC1197 (LPFR-CYYT)


WX CaptureLIVE
Data provided by noaa.gov | Fetched at 14:20:16

METAR : LPFR 151900Z 29017KT CAVOK 25/12 Q1015

TAF : LPFR 151700Z 1518/1618 30017KT CAVOK BECMG 1521/1523 32012KT BECMG 1600/1603 32007KT BECMG 1609/1612 27013KT


Runway Data for LPFR
Data provided by openaviationdata.com

Runway ID Mag Var Hdg Length Elevation Surface ILS Freq ILS Id ILS Slope
10 -4 104° 8166 ft 24 ft Asphalt -- -- --
28 -4 284° 8166 ft 24 ft Asphalt 109.5 IIF 3

Faro Airport, Portugal
Use only for reference purposes



Not for navigational purposes.